LFRZ 121530Z AUTO 28011KT 9999 OVC012 10/08 Q1030 NOSIG

ElémentsDécodage
LFRZ Station météo située sur l'aérodrome de SAINT-NAZAIRE Montoir
121530Z émis le 12 du mois à 15h30 UTC
AUTO Bulletin édité par un automate
28011KT vent du 280°, 11 noeuds
9999 visibilité horizontale supérieure à 10 Km
OVC012 couverture nuageuse totale (8/8) à 1200 pieds
10/08 température 10°C, point de rosée 08°C
 soit une humidité relative de 87%
Q1030 la pression au niveau de la mer (QNH) est de 1030 hPa
NOSIG Pas de changement significatif prévu au cours des deux heures suivant l'heure de l'observation